Time,TemperatureF,DewpointF,PressureIn,WindDirection,WindDirectionDegrees,WindSpeedMPH,WindSpeedGustMPH,Humidity,HourlyPrecipIn,Conditions,Clouds,dailyrainin,SoftwareType,DateUTC
2013-09-26 00:00:00,47.5,44.8,29.96,North,5,0.0,1.0,90,0.00,,,0.00,meteohub,2013-09-26 04:00:00,
2013-09-26 00:01:00,47.5,45.0,29.96,North,5,0.0,0.0,91,0.00,,,0.00,meteohub,2013-09-26 04:01:00,
2013-09-26 00:02:00,47.3,44.8,29.96,North,5,0.0,0.0,91,0.00,,,0.00,meteohub,2013-09-26 04:02:00,
2013-09-26 00:03:00,47.1,44.6,29.96,North,5,0.0,0.0,91,0.00,,,0.00,meteohub,2013-09-26 04:03:00,
2013-09-26 00:08:00,46.9,44.4,29.97,North,5,0.0,0.0,91,0.00,,,0.00,meteohub,2013-09-26 04:08:00,
2013-09-26 00:13:00,46.6,44.4,29.96,North,0,0.0,0.0,92,0.00,,,0.00,meteohub,2013-09-26 04:13:00,
2013-09-26 00:15:00,46.6,44.4,29.97,North,0,0.0,1.0,92,0.00,,,0.00,meteohub,2013-09-26 04:15:00,
2013-09-26 00:20:00,46.0,43.9,29.97,North,0,0.0,1.0,92,0.00,,,0.00,meteohub,2013-09-26 04:20:00,
2013-09-26 00:25:00,45.7,43.7,29.97,North,0,0.0,1.0,93,0.00,,,0.00,meteohub,2013-09-26 04:25:00,
2013-09-26 00:30:00,45.3,43.3,29.97,North,0,0.0,0.0,93,0.00,,,0.00,meteohub,2013-09-26 04:30:00,
2013-09-26 00:36:00,45.1,43.5,29.97,North,0,0.0,0.0,94,0.00,,,0.00,meteohub,2013-09-26 04:36:00,
2013-09-26 00:41:00,45.1,43.5,29.97,North,0,0.0,0.0,94,0.00,,,0.00,meteohub,2013-09-26 04:41:00,
2013-09-26 00:46:00,45.0,43.3,29.97,North,0,0.0,0.0,94,0.00,,,0.00,meteohub,2013-09-26 04:46:00,
2013-09-26 00:51:00,45.1,43.9,29.97,NW,320,0.0,3.0,95,0.00,,,0.00,meteohub,2013-09-26 04:51:00,
2013-09-26 00:56:00,45.1,43.9,29.98,NNW,328,0.0,3.0,95,0.00,,,0.00,meteohub,2013-09-26 04:56:00,
2013-09-26 01:01:00,45.3,44.2,29.98,North,350,0.0,3.0,96,0.00,,,0.00,meteohub,2013-09-26 05:01:00,
2013-09-26 01:06:00,45.7,44.6,29.98,North,350,0.0,2.0,96,0.00,,,0.00,meteohub,2013-09-26 05:06:00,
2013-09-26 01:11:00,45.9,44.8,29.98,North,350,0.0,2.0,96,0.00,,,0.00,meteohub,2013-09-26 05:11:00,
2013-09-26 01:17:00,45.9,44.4,29.98,WNW,300,1.0,2.0,95,0.00,,,0.00,meteohub,2013-09-26 05:17:00,
2013-09-26 01:22:00,46.0,44.6,29.98,NW,304,1.0,3.0,95,0.00,,,0.00,meteohub,2013-09-26 05:22:00,
2013-09-26 01:27:00,46.2,44.8,29.98,NNW,336,0.0,4.0,95,0.00,,,0.00,meteohub,2013-09-26 05:27:00,
2013-09-26 01:32:00,46.0,44.6,29.98,WNW,297,0.0,4.0,95,0.00,,,0.00,meteohub,2013-09-26 05:32:00,
2013-09-26 01:37:00,46.0,44.4,29.98,WNW,298,0.0,4.0,94,0.00,,,0.00,meteohub,2013-09-26 05:37:00,
2013-09-26 01:42:00,46.0,44.4,29.98,NNW,334,0.0,3.0,94,0.00,,,0.00,meteohub,2013-09-26 05:42:00,
2013-09-26 01:47:00,46.2,44.8,29.98,NW,323,0.0,3.0,95,0.00,,,0.00,meteohub,2013-09-26 05:47:00,
2013-09-26 01:52:00,46.2,44.8,29.99,North,5,1.0,3.0,95,0.00,,,0.00,meteohub,2013-09-26 05:52:00,
2013-09-26 01:57:00,46.6,45.1,29.99,North,9,0.0,4.0,95,0.00,,,0.00,meteohub,2013-09-26 05:57:00,
2013-09-26 02:02:00,46.6,45.1,29.99,North,355,0.0,4.0,95,0.00,,,0.00,meteohub,2013-09-26 06:02:00,
2013-09-26 02:07:00,46.8,45.1,29.99,NNW,338,2.0,4.0,94,0.00,,,0.00,meteohub,2013-09-26 06:07:00,
2013-09-26 02:12:00,46.9,45.5,29.99,NNE,23,0.0,4.0,95,0.00,,,0.00,meteohub,2013-09-26 06:12:00,
2013-09-26 02:17:00,47.1,45.5,29.99,NNW,344,2.0,4.0,94,0.00,,,0.00,meteohub,2013-09-26 06:17:00,
2013-09-26 02:22:00,47.1,45.5,29.99,WSW,257,0.0,4.0,94,0.00,,,0.00,meteohub,2013-09-26 06:22:00,
2013-09-26 02:27:00,47.1,45.5,29.99,North,355,0.0,4.0,94,0.00,,,0.00,meteohub,2013-09-26 06:27:00,
2013-09-26 02:32:00,47.1,45.5,29.99,West,265,0.0,4.0,94,0.00,,,0.00,meteohub,2013-09-26 06:32:00,
2013-09-26 02:37:00,47.1,45.5,29.99,North,355,2.0,3.0,94,0.00,,,0.00,meteohub,2013-09-26 06:37:00,
2013-09-26 02:42:00,47.3,45.7,29.99,NNE,14,0.0,3.0,94,0.00,,,0.00,meteohub,2013-09-26 06:42:00,
2013-09-26 02:47:00,47.3,45.7,29.99,NNE,14,2.0,2.0,94,0.00,,,0.00,meteohub,2013-09-26 06:47:00,
2013-09-26 02:52:00,47.5,45.9,29.99,North,355,0.0,2.0,94,0.00,,,0.00,meteohub,2013-09-26 06:52:00,
2013-09-26 02:57:00,47.7,46.0,29.99,NNE,13,0.0,3.0,94,0.00,,,0.00,meteohub,2013-09-26 06:57:00,
2013-09-26 03:02:00,47.7,46.0,29.99,NNE,15,0.0,3.0,94,0.00,,,0.00,meteohub,2013-09-26 07:02:00,
2013-09-26 03:07:00,47.8,46.2,29.99,North,9,0.0,2.0,94,0.00,,,0.00,meteohub,2013-09-26 07:07:00,
2013-09-26 03:12:00,47.8,46.2,29.99,NNE,27,0.0,3.0,94,0.00,,,0.00,meteohub,2013-09-26 07:12:00,
2013-09-26 03:17:00,48.0,46.4,29.99,West,279,0.0,3.0,94,0.00,,,0.00,meteohub,2013-09-26 07:17:00,
2013-09-26 03:22:00,48.2,46.6,29.99,North,351,0.0,4.0,94,0.00,,,0.00,meteohub,2013-09-26 07:22:00,
2013-09-26 03:27:00,48.4,46.8,29.99,NW,311,4.0,5.0,94,0.00,,,0.00,meteohub,2013-09-26 07:27:00,
2013-09-26 03:32:00,48.6,46.6,29.99,NNE,12,1.0,5.0,93,0.00,,,0.00,meteohub,2013-09-26 07:32:00,
2013-09-26 03:37:00,48.7,46.8,29.99,North,355,0.0,6.0,93,0.00,,,0.00,meteohub,2013-09-26 07:37:00,
2013-09-26 03:42:00,48.9,46.9,29.99,NNE,16,0.0,6.0,93,0.00,,,0.00,meteohub,2013-09-26 07:42:00,
2013-09-26 03:47:00,48.9,46.8,29.99,North,355,0.0,6.0,92,0.00,,,0.00,meteohub,2013-09-26 07:47:00,
2013-09-26 03:52:00,48.9,46.8,29.99,North,5,4.0,4.0,92,0.00,,,0.00,meteohub,2013-09-26 07:52:00,
2013-09-26 03:57:00,48.9,46.8,29.99,North,355,2.0,5.0,92,0.00,,,0.00,meteohub,2013-09-26 07:57:00,
2013-09-26 04:02:00,48.9,46.8,29.99,NNE,22,1.0,5.0,92,0.00,,,0.00,meteohub,2013-09-26 08:02:00,
2013-09-26 04:07:00,48.9,46.8,29.99,North,355,3.0,5.0,92,0.00,,,0.00,meteohub,2013-09-26 08:07:00,
2013-09-26 04:12:00,49.1,46.9,29.99,NNE,32,1.0,4.0,92,0.00,,,0.00,meteohub,2013-09-26 08:12:00,
2013-09-26 04:17:00,49.1,46.9,29.99,NNE,13,2.0,4.0,92,0.00,,,0.00,meteohub,2013-09-26 08:17:00,
2013-09-26 04:22:00,49.1,46.9,30.00,NNE,28,2.0,4.0,92,0.00,,,0.00,meteohub,2013-09-26 08:22:00,
2013-09-26 04:27:00,49.1,46.9,29.99,North,0,0.0,6.0,92,0.00,,,0.00,meteohub,2013-09-26 08:27:00,
2013-09-26 04:32:00,49.3,47.1,29.99,NNW,345,6.0,6.0,92,0.00,,,0.00,meteohub,2013-09-26 08:32:00,
2013-09-26 04:37:00,49.3,46.8,29.99,North,0,3.0,8.0,91,0.00,,,0.00,meteohub,2013-09-26 08:37:00,
2013-09-26 04:42:00,49.3,46.8,30.00,North,5,6.0,8.0,91,0.00,,,0.00,meteohub,2013-09-26 08:42:00,
2013-09-26 04:47:00,49.3,46.8,30.00,North,355,4.0,8.0,91,0.00,,,0.00,meteohub,2013-09-26 08:47:00,
2013-09-26 04:52:00,49.5,46.9,30.00,NNE,15,3.0,8.0,91,0.00,,,0.00,meteohub,2013-09-26 08:52:00,
2013-09-26 04:57:00,49.5,46.9,30.00,North,355,4.0,8.0,91,0.00,,,0.00,meteohub,2013-09-26 08:57:00,
2013-09-26 05:02:00,49.5,46.6,30.00,NNW,340,2.0,8.0,90,0.00,,,0.00,meteohub,2013-09-26 09:02:00,
2013-09-26 05:07:00,49.3,46.4,30.00,NNE,24,3.0,7.0,90,0.00,,,0.00,meteohub,2013-09-26 09:07:00,
2013-09-26 05:12:00,49.3,46.4,30.00,North,355,6.0,6.0,90,0.00,,,0.00,meteohub,2013-09-26 09:12:00,
2013-09-26 05:17:00,49.1,46.2,30.00,North,10,3.0,7.0,90,0.00,,,0.00,meteohub,2013-09-26 09:17:00,
2013-09-26 05:22:00,48.9,46.0,30.00,NNE,22,6.0,8.0,90,0.00,,,0.00,meteohub,2013-09-26 09:22:00,
2013-09-26 05:28:00,48.7,46.2,30.00,NNE,19,3.0,8.0,91,0.00,,,0.00,meteohub,2013-09-26 09:28:00,
2013-09-26 05:33:00,48.6,46.0,30.00,NE,40,3.0,8.0,91,0.00,,,0.00,meteohub,2013-09-26 09:33:00,
2013-09-26 05:38:00,48.4,45.9,30.00,NNE,19,4.0,6.0,91,0.00,,,0.00,meteohub,2013-09-26 09:38:00,
2013-09-26 05:43:00,48.4,45.9,30.00,North,0,4.0,10.0,91,0.00,,,0.00,meteohub,2013-09-26 09:43:00,
2013-09-26 05:48:00,48.2,45.7,30.01,North,5,4.0,10.0,91,0.00,,,0.00,meteohub,2013-09-26 09:48:00,
2013-09-26 05:53:00,48.0,45.5,30.01,North,5,4.0,8.0,91,0.00,,,0.00,meteohub,2013-09-26 09:53:00,
2013-09-26 05:58:00,48.0,45.5,30.01,North,355,3.0,8.0,91,0.00,,,0.00,meteohub,2013-09-26 09:58:00,
2013-09-26 06:03:00,47.8,45.3,30.01,NE,56,6.0,10.0,91,0.00,,,0.00,meteohub,2013-09-26 10:03:00,
2013-09-26 06:09:00,47.8,45.7,30.01,North,5,2.0,10.0,92,0.00,,,0.00,meteohub,2013-09-26 10:09:00,
2013-09-26 06:14:00,47.7,45.5,30.01,NNE,20,2.0,10.0,92,0.00,,,0.00,meteohub,2013-09-26 10:14:00,
2013-09-26 06:19:00,47.5,45.3,30.02,North,355,6.0,8.0,92,0.00,,,0.00,meteohub,2013-09-26 10:19:00,
2013-09-26 06:24:00,47.5,45.3,30.02,North,355,6.0,9.0,92,0.00,,,0.00,meteohub,2013-09-26 10:24:00,
2013-09-26 06:29:00,47.5,45.3,30.02,North,355,4.0,9.0,92,0.00,,,0.00,meteohub,2013-09-26 10:29:00,
2013-09-26 06:34:00,47.5,45.3,30.02,North,9,1.0,9.0,92,0.00,,,0.00,meteohub,2013-09-26 10:34:00,
2013-09-26 06:39:00,47.5,45.3,30.02,North,5,3.0,8.0,92,0.00,,,0.00,meteohub,2013-09-26 10:39:00,
2013-09-26 06:44:00,47.5,45.3,30.03,North,5,5.0,9.0,92,0.00,,,0.00,meteohub,2013-09-26 10:44:00,
2013-09-26 06:50:00,47.7,45.5,30.03,North,5,1.0,9.0,92,0.00,,,0.00,meteohub,2013-09-26 10:50:00,
2013-09-26 06:55:00,47.7,45.5,30.03,NNE,25,2.0,9.0,92,0.00,,,0.00,meteohub,2013-09-26 10:55:00,
2013-09-26 07:00:00,47.7,45.5,30.03,North,5,0.0,8.0,92,0.00,,,0.00,meteohub,2013-09-26 11:00:00,
2013-09-26 07:05:00,47.8,45.3,30.04,North,351,4.0,8.0,91,0.00,,,0.00,meteohub,2013-09-26 11:05:00,
2013-09-26 07:10:00,48.0,45.5,30.04,NNE,19,6.0,8.0,91,0.00,,,0.00,meteohub,2013-09-26 11:10:00,
2013-09-26 07:15:00,48.0,45.5,30.04,North,355,0.0,8.0,91,0.00,,,0.00,meteohub,2013-09-26 11:15:00,
2013-09-26 07:20:00,48.4,45.9,30.04,NE,42,0.0,8.0,91,0.00,,,0.00,meteohub,2013-09-26 11:20:00,
2013-09-26 07:26:00,48.6,46.0,30.04,NNW,337,1.0,7.0,91,0.00,,,0.00,meteohub,2013-09-26 11:26:00,
2013-09-26 07:31:00,48.6,46.0,30.04,NNW,344,1.0,7.0,91,0.00,,,0.00,meteohub,2013-09-26 11:31:00,
2013-09-26 07:36:00,48.7,46.2,30.05,NNW,336,5.0,7.0,91,0.00,,,0.00,meteohub,2013-09-26 11:36:00,
2013-09-26 07:41:00,48.9,46.0,30.05,North,11,1.0,7.0,90,0.00,,,0.00,meteohub,2013-09-26 11:41:00,
2013-09-26 07:46:00,49.3,46.4,30.05,North,5,2.0,7.0,90,0.00,,,0.00,meteohub,2013-09-26 11:46:00,
2013-09-26 07:51:00,49.5,46.6,30.05,NW,316,0.0,7.0,90,0.00,,,0.00,meteohub,2013-09-26 11:51:00,
2013-09-26 07:56:00,49.6,46.6,30.05,North,5,0.0,5.0,89,0.00,,,0.00,meteohub,2013-09-26 11:56:00,
2013-09-26 08:01:00,49.6,46.6,30.05,North,355,1.0,5.0,89,0.00,,,0.00,meteohub,2013-09-26 12:01:00,
2013-09-26 08:07:00,49.6,46.6,30.05,North,349,1.0,5.0,89,0.00,,,0.00,meteohub,2013-09-26 12:07:00,
2013-09-26 08:12:00,49.8,46.8,30.05,NNE,19,1.0,5.0,89,0.00,,,0.00,meteohub,2013-09-26 12:12:00,
2013-09-26 08:17:00,49.8,46.8,30.05,WNW,284,3.0,5.0,89,0.00,,,0.00,meteohub,2013-09-26 12:17:00,
2013-09-26 08:22:00,50.0,46.9,30.06,NNW,348,1.0,6.0,89,0.00,,,0.00,meteohub,2013-09-26 12:22:00,
2013-09-26 08:27:00,50.2,47.1,30.06,NW,321,0.0,6.0,89,0.00,,,0.00,meteohub,2013-09-26 12:27:00,
2013-09-26 08:32:00,50.2,47.1,30.06,North,0,2.0,6.0,89,0.00,,,0.00,meteohub,2013-09-26 12:32:00,
2013-09-26 08:37:00,50.4,46.9,30.06,North,0,1.0,4.0,88,0.00,,,0.00,meteohub,2013-09-26 12:37:00,
2013-09-26 08:42:00,50.5,47.1,30.06,North,355,4.0,5.0,88,0.00,,,0.00,meteohub,2013-09-26 12:42:00,
2013-09-26 08:47:00,50.5,46.8,30.06,NNW,330,0.0,5.0,87,0.00,,,0.00,meteohub,2013-09-26 12:47:00,
2013-09-26 08:52:00,50.7,46.9,30.06,NNE,13,2.0,5.0,87,0.00,,,0.00,meteohub,2013-09-26 12:52:00,
2013-09-26 08:57:00,50.7,46.9,30.06,NNW,342,2.0,6.0,87,0.00,,,0.00,meteohub,2013-09-26 12:57:00,
2013-09-26 09:02:00,50.9,47.1,30.06,West,271,1.0,6.0,87,0.00,,,0.00,meteohub,2013-09-26 13:02:00,
2013-09-26 09:07:00,50.9,47.1,30.06,NNW,341,4.0,6.0,87,0.00,,,0.00,meteohub,2013-09-26 13:07:00,
2013-09-26 09:13:00,51.1,47.3,30.06,WNW,300,5.0,7.0,87,0.00,,,0.00,meteohub,2013-09-26 13:13:00,
2013-09-26 09:18:00,51.1,47.3,30.06,North,9,0.0,7.0,87,0.00,,,0.00,meteohub,2013-09-26 13:18:00,
2013-09-26 09:23:00,51.3,47.5,30.06,NNW,340,3.0,7.0,87,0.00,,,0.00,meteohub,2013-09-26 13:23:00,
2013-09-26 09:28:00,51.3,47.5,30.06,NNE,28,5.0,7.0,87,0.00,,,0.00,meteohub,2013-09-26 13:28:00,
2013-09-26 09:33:00,51.4,47.7,30.06,NNE,18,4.0,7.0,87,0.00,,,0.00,meteohub,2013-09-26 13:33:00,
2013-09-26 09:38:00,51.4,47.5,30.06,North,355,1.0,7.0,86,0.00,,,0.00,meteohub,2013-09-26 13:38:00,
2013-09-26 09:43:00,51.6,47.5,30.06,NNW,340,1.0,8.0,86,0.00,,,0.00,meteohub,2013-09-26 13:43:00,
2013-09-26 09:49:00,51.6,47.5,30.06,NE,34,1.0,8.0,86,0.00,,,0.00,meteohub,2013-09-26 13:49:00,
2013-09-26 09:54:00,52.0,47.8,30.06,North,5,3.0,8.0,86,0.00,,,0.00,meteohub,2013-09-26 13:54:00,
2013-09-26 09:59:00,52.0,47.7,30.06,NNW,344,0.0,8.0,85,0.00,,,0.00,meteohub,2013-09-26 13:59:00,
2013-09-26 10:04:00,52.0,47.7,30.06,NNE,13,5.0,7.0,85,0.00,,,0.00,meteohub,2013-09-26 14:04:00,
2013-09-26 10:09:00,52.2,47.8,30.06,NNE,17,7.0,8.0,85,0.00,,,0.00,meteohub,2013-09-26 14:09:00,
2013-09-26 10:14:00,52.2,47.8,30.06,North,0,0.0,8.0,85,0.00,,,0.00,meteohub,2013-09-26 14:14:00,
2013-09-26 10:19:00,52.3,48.0,30.06,WNW,302,1.0,8.0,85,0.00,,,0.00,meteohub,2013-09-26 14:19:00,
2013-09-26 10:24:00,52.5,47.8,30.06,WNW,300,0.0,7.0,84,0.00,,,0.00,meteohub,2013-09-26 14:24:00,
2013-09-26 10:30:00,52.5,48.2,30.06,North,355,4.0,7.0,85,0.00,,,0.00,meteohub,2013-09-26 14:30:00,
2013-09-26 10:35:00,52.7,48.0,30.07,North,0,0.0,7.0,84,0.00,,,0.00,meteohub,2013-09-26 14:35:00,
2013-09-26 10:40:00,52.9,48.2,30.07,West,260,5.0,7.0,84,0.00,,,0.00,meteohub,2013-09-26 14:40:00,
2013-09-26 10:45:00,52.9,47.8,30.07,North,355,3.0,7.0,83,0.00,,,0.00,meteohub,2013-09-26 14:45:00,
2013-09-26 10:50:00,53.1,48.0,30.07,NE,38,0.0,7.0,83,0.00,,,0.00,meteohub,2013-09-26 14:50:00,
2013-09-26 10:55:00,53.1,48.0,30.06,North,355,2.0,7.0,83,0.00,,,0.00,meteohub,2013-09-26 14:55:00,
2013-09-26 11:00:00,53.2,47.8,30.06,NE,40,2.0,7.0,82,0.00,,,0.00,meteohub,2013-09-26 15:00:00,
2013-09-26 11:05:00,53.2,48.2,30.06,North,9,5.0,7.0,83,0.00,,,0.00,meteohub,2013-09-26 15:05:00,
2013-09-26 11:11:00,53.2,47.8,30.06,North,11,2.0,10.0,82,0.00,,,0.00,meteohub,2013-09-26 15:11:00,
2013-09-26 11:16:00,53.4,48.0,30.06,NNW,343,2.0,10.0,82,0.00,,,0.00,meteohub,2013-09-26 15:16:00,
2013-09-26 11:21:00,53.4,48.0,30.06,North,5,5.0,10.0,82,0.00,,,0.00,meteohub,2013-09-26 15:21:00,
2013-09-26 11:26:00,53.8,48.4,30.06,NNW,346,5.0,11.0,82,0.00,,,0.00,meteohub,2013-09-26 15:26:00,
2013-09-26 11:31:00,54.0,48.2,30.06,North,10,3.0,11.0,81,0.00,,,0.00,meteohub,2013-09-26 15:31:00,
2013-09-26 11:36:00,54.0,48.6,30.06,West,268,1.0,11.0,82,0.00,,,0.00,meteohub,2013-09-26 15:36:00,
2013-09-26 11:41:00,54.1,48.0,30.06,North,11,0.0,10.0,80,0.00,,,0.00,meteohub,2013-09-26 15:41:00,
2013-09-26 11:46:00,54.3,48.6,30.07,ENE,78,1.0,10.0,81,0.00,,,0.00,meteohub,2013-09-26 15:46:00,
2013-09-26 11:52:00,54.3,48.2,30.07,North,355,4.0,10.0,80,0.00,,,0.00,meteohub,2013-09-26 15:52:00,
2013-09-26 11:57:00,54.5,48.7,30.07,North,355,2.0,9.0,81,0.00,,,0.00,meteohub,2013-09-26 15:57:00,
2013-09-26 12:02:00,54.7,48.9,30.07,North,5,2.0,9.0,81,0.00,,,0.00,meteohub,2013-09-26 16:02:00,
2013-09-26 12:07:00,54.7,48.9,30.06,North,355,1.0,11.0,81,0.00,,,0.00,meteohub,2013-09-26 16:07:00,
2013-09-26 12:12:00,54.9,48.7,30.06,NNW,340,7.0,11.0,80,0.00,,,0.00,meteohub,2013-09-26 16:12:00,
2013-09-26 12:17:00,54.9,48.7,30.06,NE,38,0.0,8.0,80,0.00,,,0.00,meteohub,2013-09-26 16:17:00,
2013-09-26 12:22:00,55.0,48.9,30.06,NW,304,2.0,8.0,80,0.00,,,0.00,meteohub,2013-09-26 16:22:00,
2013-09-26 12:27:00,55.2,49.1,30.06,North,0,1.0,8.0,80,0.00,,,0.00,meteohub,2013-09-26 16:27:00,
2013-09-26 12:32:00,55.4,49.3,30.06,NNW,340,3.0,8.0,80,0.00,,,0.00,meteohub,2013-09-26 16:32:00,
2013-09-26 12:37:00,55.8,49.3,30.06,North,5,7.0,8.0,79,0.00,,,0.00,meteohub,2013-09-26 16:37:00,
2013-09-26 12:42:00,55.9,49.1,30.06,North,350,3.0,9.0,78,0.00,,,0.00,meteohub,2013-09-26 16:42:00,
2013-09-26 12:47:00,55.9,49.1,30.06,North,355,2.0,9.0,78,0.00,,,0.00,meteohub,2013-09-26 16:47:00,
2013-09-26 12:52:00,55.9,49.5,30.06,North,350,0.0,10.0,79,0.00,,,0.00,meteohub,2013-09-26 16:52:00,
2013-09-26 12:57:00,55.8,48.9,30.06,NNE,22,7.0,10.0,78,0.00,,,0.00,meteohub,2013-09-26 16:57:00,
2013-09-26 13:02:00,55.9,49.1,30.06,WSW,252,0.0,10.0,78,0.00,,,0.00,meteohub,2013-09-26 17:02:00,
2013-09-26 13:07:00,55.8,49.3,30.06,NNE,28,0.0,10.0,79,0.00,,,0.00,meteohub,2013-09-26 17:07:00,
2013-09-26 13:12:00,56.1,49.6,30.06,NNW,345,6.0,9.0,79,0.00,,,0.00,meteohub,2013-09-26 17:12:00,
2013-09-26 13:17:00,56.5,50.0,30.06,North,350,1.0,9.0,79,0.00,,,0.00,meteohub,2013-09-26 17:17:00,
2013-09-26 13:22:00,56.5,49.6,30.06,NE,55,3.0,8.0,78,0.00,,,0.00,meteohub,2013-09-26 17:22:00,
2013-09-26 13:27:00,56.1,49.6,30.06,North,5,3.0,8.0,79,0.00,,,0.00,meteohub,2013-09-26 17:27:00,
2013-09-26 13:32:00,55.9,49.5,30.06,NNE,14,2.0,10.0,79,0.00,,,0.00,meteohub,2013-09-26 17:32:00,
2013-09-26 13:37:00,56.1,49.6,30.06,NNE,13,4.0,11.0,79,0.00,,,0.00,meteohub,2013-09-26 17:37:00,
2013-09-26 13:42:00,56.1,49.6,30.06,NW,319,6.0,11.0,79,0.00,,,0.00,meteohub,2013-09-26 17:42:00,
2013-09-26 13:47:00,55.9,49.8,30.06,NNW,332,1.0,11.0,80,0.00,,,0.00,meteohub,2013-09-26 17:47:00,
2013-09-26 13:52:00,56.1,50.0,30.06,NNE,17,4.0,8.0,80,0.00,,,0.00,meteohub,2013-09-26 17:52:00,
2013-09-26 13:57:00,56.5,49.6,30.06,NE,47,4.0,8.0,78,0.00,,,0.00,meteohub,2013-09-26 17:57:00,
2013-09-26 14:02:00,56.7,49.8,30.06,North,355,8.0,11.0,78,0.00,,,0.00,meteohub,2013-09-26 18:02:00,
2013-09-26 14:07:00,56.7,49.8,30.06,North,11,4.0,11.0,78,0.00,,,0.00,meteohub,2013-09-26 18:07:00,
2013-09-26 14:12:00,56.5,50.4,30.06,NNW,342,1.0,11.0,80,0.00,,,0.00,meteohub,2013-09-26 18:12:00,
2013-09-26 14:17:00,56.1,50.0,30.07,North,355,3.0,11.0,80,0.00,,,0.00,meteohub,2013-09-26 18:17:00,
2013-09-26 14:22:00,56.1,50.0,30.06,NNW,339,4.0,11.0,80,0.00,,,0.00,meteohub,2013-09-26 18:22:00,
2013-09-26 14:28:00,56.1,50.0,30.06,North,351,0.0,9.0,80,0.00,,,0.00,meteohub,2013-09-26 18:28:00,
2013-09-26 14:33:00,56.1,50.0,30.06,North,0,3.0,11.0,80,0.00,,,0.00,meteohub,2013-09-26 18:33:00,
2013-09-26 14:38:00,56.3,50.2,30.06,North,5,2.0,11.0,80,0.00,,,0.00,meteohub,2013-09-26 18:38:00,
2013-09-26 14:43:00,56.5,50.4,30.06,West,261,1.0,8.0,80,0.00,,,0.00,meteohub,2013-09-26 18:43:00,
2013-09-26 14:48:00,56.7,50.2,30.07,West,261,4.0,7.0,79,0.00,,,0.00,meteohub,2013-09-26 18:48:00,
2013-09-26 14:53:00,56.7,50.2,30.06,NNW,345,2.0,6.0,79,0.00,,,0.00,meteohub,2013-09-26 18:53:00,
2013-09-26 14:58:00,56.8,50.4,30.06,North,355,5.0,7.0,79,0.00,,,0.00,meteohub,2013-09-26 18:58:00,
2013-09-26 15:04:00,56.8,50.4,30.06,NNW,344,0.0,8.0,79,0.00,,,0.00,meteohub,2013-09-26 19:04:00,
2013-09-26 15:09:00,57.0,50.5,30.06,WSW,254,1.0,8.0,79,0.00,,,0.00,meteohub,2013-09-26 19:09:00,
2013-09-26 15:14:00,57.0,50.5,30.07,North,350,3.0,8.0,79,0.00,,,0.00,meteohub,2013-09-26 19:14:00,
2013-09-26 15:19:00,56.7,50.5,30.07,North,5,6.0,10.0,80,0.00,,,0.00,meteohub,2013-09-26 19:19:00,
2013-09-26 15:24:00,56.1,50.0,30.07,NNE,14,1.0,11.0,80,0.00,,,0.00,meteohub,2013-09-26 19:24:00,
2013-09-26 15:29:00,56.1,50.4,30.06,North,5,2.0,11.0,81,0.00,,,0.00,meteohub,2013-09-26 19:29:00,
2013-09-26 15:34:00,55.9,50.2,30.06,North,5,4.0,11.0,81,0.00,,,0.00,meteohub,2013-09-26 19:34:00,
2013-09-26 15:39:00,56.1,50.4,30.06,North,0,5.0,9.0,81,0.00,,,0.00,meteohub,2013-09-26 19:39:00,
2013-09-26 15:45:00,56.1,50.4,30.06,NW,316,3.0,12.0,81,0.00,,,0.00,meteohub,2013-09-26 19:45:00,
2013-09-26 15:50:00,56.3,50.5,30.06,NW,309,5.0,12.0,81,0.00,,,0.00,meteohub,2013-09-26 19:50:00,
2013-09-26 15:55:00,56.5,50.7,30.07,North,349,3.0,12.0,81,0.00,,,0.00,meteohub,2013-09-26 19:55:00,
2013-09-26 16:00:00,56.5,50.7,30.07,North,355,4.0,9.0,81,0.00,,,0.00,meteohub,2013-09-26 20:00:00,
2013-09-26 16:05:00,56.5,50.7,30.07,NW,325,3.0,11.0,81,0.00,,,0.00,meteohub,2013-09-26 20:05:00,
2013-09-26 16:10:00,56.5,50.7,30.07,North,5,6.0,11.0,81,0.00,,,0.00,meteohub,2013-09-26 20:10:00,
2013-09-26 16:15:00,56.7,50.9,30.07,NW,324,2.0,9.0,81,0.00,,,0.00,meteohub,2013-09-26 20:15:00,
2013-09-26 16:21:00,56.5,50.7,30.08,NNW,338,5.0,11.0,81,0.00,,,0.00,meteohub,2013-09-26 20:21:00,
2013-09-26 16:26:00,56.5,50.7,30.08,North,9,1.0,11.0,81,0.00,,,0.00,meteohub,2013-09-26 20:26:00,
2013-09-26 16:31:00,56.5,50.7,30.08,WNW,285,3.0,11.0,81,0.00,,,0.00,meteohub,2013-09-26 20:31:00,
2013-09-26 16:36:00,56.7,50.9,30.08,North,0,3.0,7.0,81,0.00,,,0.00,meteohub,2013-09-26 20:36:00,
2013-09-26 16:41:00,56.7,50.9,30.08,NW,309,2.0,7.0,81,0.00,,,0.00,meteohub,2013-09-26 20:41:00,
2013-09-26 16:46:00,56.7,50.9,30.08,North,5,8.0,8.0,81,0.00,,,0.00,meteohub,2013-09-26 20:46:00,
2013-09-26 16:52:00,56.7,50.5,30.08,North,5,1.0,8.0,80,0.00,,,0.00,meteohub,2013-09-26 20:52:00,
2013-09-26 16:57:00,56.7,50.9,30.08,NNE,12,2.0,8.0,81,0.00,,,0.00,meteohub,2013-09-26 20:57:00,
2013-09-26 17:02:00,56.5,50.7,30.08,North,355,5.0,8.0,81,0.00,,,0.00,meteohub,2013-09-26 21:02:00,
2013-09-26 17:07:00,56.5,50.7,30.08,NNW,331,0.0,9.0,81,0.00,,,0.00,meteohub,2013-09-26 21:07:00,
2013-09-26 17:12:00,56.5,50.7,30.08,NNE,19,4.0,9.0,81,0.00,,,0.00,meteohub,2013-09-26 21:12:00,
2013-09-26 17:17:00,56.5,50.7,30.08,NW,319,1.0,9.0,81,0.00,,,0.00,meteohub,2013-09-26 21:17:00,
2013-09-26 17:22:00,56.5,50.7,30.08,North,5,3.0,6.0,81,0.00,,,0.00,meteohub,2013-09-26 21:22:00,
2013-09-26 17:27:00,56.3,50.5,30.08,North,0,2.0,6.0,81,0.00,,,0.00,meteohub,2013-09-26 21:27:00,
2013-09-26 17:32:00,56.1,50.4,30.09,North,0,3.0,6.0,81,0.00,,,0.00,meteohub,2013-09-26 21:32:00,
2013-09-26 17:37:00,55.9,50.5,30.09,NW,319,0.0,6.0,82,0.00,,,0.00,meteohub,2013-09-26 21:37:00,
2013-09-26 17:42:00,55.9,50.5,30.09,NNW,346,4.0,6.0,82,0.00,,,0.00,meteohub,2013-09-26 21:42:00,
2013-09-26 17:47:00,55.8,50.4,30.09,North,0,5.0,6.0,82,0.00,,,0.00,meteohub,2013-09-26 21:47:00,
2013-09-26 17:52:00,55.8,50.7,30.09,NNE,13,0.0,6.0,83,0.00,,,0.00,meteohub,2013-09-26 21:52:00,
2013-09-26 17:58:00,55.8,50.7,30.09,North,9,4.0,11.0,83,0.00,,,0.00,meteohub,2013-09-26 21:58:00,
2013-09-26 18:03:00,55.8,50.7,30.09,North,0,3.0,11.0,83,0.00,,,0.00,meteohub,2013-09-26 22:03:00,
2013-09-26 18:08:00,55.8,50.4,30.09,North,0,2.0,11.0,82,0.00,,,0.00,meteohub,2013-09-26 22:08:00,
2013-09-26 18:13:00,55.8,50.4,30.09,NW,321,3.0,5.0,82,0.00,,,0.00,meteohub,2013-09-26 22:13:00,
2013-09-26 18:18:00,55.8,50.4,30.10,North,355,5.0,6.0,82,0.00,,,0.00,meteohub,2013-09-26 22:18:00,
2013-09-26 18:23:00,55.6,50.2,30.10,NW,317,4.0,7.0,82,0.00,,,0.00,meteohub,2013-09-26 22:23:00,
2013-09-26 18:29:00,55.6,50.2,30.10,NNE,12,2.0,7.0,82,0.00,,,0.00,meteohub,2013-09-26 22:29:00,
2013-09-26 18:34:00,55.6,50.2,30.10,North,355,4.0,8.0,82,0.00,,,0.00,meteohub,2013-09-26 22:34:00,
2013-09-26 18:39:00,55.4,50.4,30.10,NNE,13,3.0,8.0,83,0.00,,,0.00,meteohub,2013-09-26 22:39:00,
2013-09-26 18:44:00,55.2,50.2,30.10,NNE,15,2.0,7.0,83,0.00,,,0.00,meteohub,2013-09-26 22:44:00,
2013-09-26 18:49:00,55.2,50.2,30.10,NNE,12,1.0,7.0,83,0.00,,,0.00,meteohub,2013-09-26 22:49:00,
2013-09-26 18:54:00,55.2,50.2,30.11,North,5,1.0,6.0,83,0.00,,,0.00,meteohub,2013-09-26 22:54:00,
2013-09-26 18:59:00,55.2,50.2,30.11,WNW,300,1.0,6.0,83,0.00,,,0.00,meteohub,2013-09-26 22:59:00,
2013-09-26 19:04:00,55.0,50.0,30.11,NW,311,1.0,5.0,83,0.00,,,0.00,meteohub,2013-09-26 23:04:00,
2013-09-26 19:10:00,55.0,50.0,30.11,North,355,1.0,5.0,83,0.00,,,0.00,meteohub,2013-09-26 23:10:00,
2013-09-26 19:15:00,54.9,49.8,30.11,North,351,1.0,5.0,83,0.00,,,0.00,meteohub,2013-09-26 23:15:00,
2013-09-26 19:20:00,54.9,49.8,30.11,North,5,0.0,5.0,83,0.00,,,0.00,meteohub,2013-09-26 23:20:00,
2013-09-26 19:25:00,54.7,50.0,30.11,NNE,18,1.0,5.0,84,0.00,,,0.00,meteohub,2013-09-26 23:25:00,
2013-09-26 19:30:00,54.7,50.0,30.11,North,350,2.0,5.0,84,0.00,,,0.00,meteohub,2013-09-26 23:30:00,
2013-09-26 19:36:00,54.5,49.8,30.11,North,355,0.0,5.0,84,0.00,,,0.00,meteohub,2013-09-26 23:36:00,
2013-09-26 19:41:00,54.3,49.6,30.11,NNE,28,1.0,4.0,84,0.00,,,0.00,meteohub,2013-09-26 23:41:00,
2013-09-26 19:46:00,54.3,49.6,30.11,North,355,0.0,5.0,84,0.00,,,0.00,meteohub,2013-09-26 23:46:00,
2013-09-26 19:51:00,54.3,49.6,30.11,North,355,0.0,5.0,84,0.00,,,0.00,meteohub,2013-09-26 23:51:00,
2013-09-26 19:56:00,54.1,49.8,30.11,North,355,0.0,5.0,85,0.00,,,0.00,meteohub,2013-09-26 23:56:00,
2013-09-26 20:01:00,54.0,49.6,30.12,NW,323,2.0,3.0,85,0.00,,,0.00,meteohub,2013-09-27 00:01:00,
2013-09-26 20:07:00,53.8,49.6,30.12,NW,323,0.0,2.0,86,0.00,,,0.00,meteohub,2013-09-27 00:07:00,
2013-09-26 20:12:00,53.4,49.3,30.12,WNW,299,0.0,2.0,86,0.00,,,0.00,meteohub,2013-09-27 00:12:00,
2013-09-26 20:17:00,53.4,49.3,30.12,West,269,0.0,3.0,86,0.00,,,0.00,meteohub,2013-09-27 00:17:00,
2013-09-26 20:22:00,53.2,49.5,30.12,West,269,0.0,3.0,87,0.00,,,0.00,meteohub,2013-09-27 00:22:00,
2013-09-26 20:27:00,53.2,49.5,30.12,West,269,0.0,3.0,87,0.00,,,0.00,meteohub,2013-09-27 00:27:00,
2013-09-26 20:32:00,53.1,49.6,30.12,West,269,0.0,1.0,88,0.00,,,0.00,meteohub,2013-09-27 00:32:00,
2013-09-26 20:37:00,52.9,49.5,30.12,West,269,0.0,0.0,88,0.00,,,0.00,meteohub,2013-09-27 00:37:00,
2013-09-26 20:42:00,52.7,49.5,30.12,West,269,0.0,0.0,89,0.00,,,0.00,meteohub,2013-09-27 00:42:00,
2013-09-26 20:47:00,52.5,49.5,30.12,West,269,0.0,0.0,89,0.00,,,0.00,meteohub,2013-09-27 00:47:00,
2013-09-26 20:52:00,52.3,49.5,30.12,West,269,0.0,0.0,90,0.00,,,0.00,meteohub,2013-09-27 00:52:00,
2013-09-26 20:57:00,52.2,49.3,30.12,West,269,0.0,0.0,90,0.00,,,0.00,meteohub,2013-09-27 00:57:00,
2013-09-26 21:03:00,52.2,49.6,30.12,West,269,0.0,0.0,91,0.00,,,0.00,meteohub,2013-09-27 01:03:00,
2013-09-26 21:08:00,52.0,49.5,30.12,West,269,0.0,0.0,91,0.00,,,0.00,meteohub,2013-09-27 01:08:00,
2013-09-26 21:13:00,52.0,49.5,30.12,West,269,0.0,0.0,91,0.00,,,0.00,meteohub,2013-09-27 01:13:00,
2013-09-26 21:18:00,51.8,49.3,30.12,West,269,0.0,0.0,91,0.00,,,0.00,meteohub,2013-09-27 01:18:00,
2013-09-26 21:23:00,51.8,49.3,30.12,West,281,0.0,0.0,91,0.00,,,0.00,meteohub,2013-09-27 01:23:00,
2013-09-26 21:28:00,52.2,49.6,30.12,NNW,348,0.0,1.0,91,0.00,,,0.00,meteohub,2013-09-27 01:28:00,
2013-09-26 21:33:00,52.3,49.5,30.13,NW,320,2.0,4.0,90,0.00,,,0.00,meteohub,2013-09-27 01:33:00,
2013-09-26 21:39:00,52.5,49.5,30.13,NW,320,0.0,4.0,89,0.00,,,0.00,meteohub,2013-09-27 01:39:00,
2013-09-26 21:44:00,52.5,49.5,30.13,NW,320,0.0,4.0,89,0.00,,,0.00,meteohub,2013-09-27 01:44:00,
2013-09-26 21:49:00,52.5,49.6,30.13,NW,320,0.0,3.0,90,0.00,,,0.00,meteohub,2013-09-27 01:49:00,
2013-09-26 21:54:00,52.3,49.5,30.13,NW,320,0.0,1.0,90,0.00,,,0.00,meteohub,2013-09-27 01:54:00,
2013-09-26 21:59:00,52.0,49.1,30.13,NW,320,0.0,1.0,90,0.00,,,0.00,meteohub,2013-09-27 01:59:00,
2013-09-26 22:04:00,51.6,49.1,30.13,NW,320,0.0,0.0,91,0.00,,,0.00,meteohub,2013-09-27 02:04:00,
2013-09-26 22:10:00,51.4,48.9,30.13,NW,320,0.0,0.0,91,0.00,,,0.00,meteohub,2013-09-27 02:10:00,
2013-09-26 22:15:00,51.1,48.6,30.13,NW,320,0.0,0.0,91,0.00,,,0.00,meteohub,2013-09-27 02:15:00,
2013-09-26 22:20:00,50.7,48.6,30.13,NW,320,0.0,0.0,92,0.00,,,0.00,meteohub,2013-09-27 02:20:00,
2013-09-26 22:25:00,50.5,48.6,30.13,NW,320,0.0,0.0,93,0.00,,,0.00,meteohub,2013-09-27 02:25:00,
2013-09-26 22:30:00,50.5,48.6,30.13,NW,320,0.0,0.0,93,0.00,,,0.00,meteohub,2013-09-27 02:30:00,
2013-09-26 22:35:00,50.4,48.4,30.13,NW,320,0.0,0.0,93,0.00,,,0.00,meteohub,2013-09-27 02:35:00,
2013-09-26 22:40:00,50.2,48.6,30.13,NW,320,0.0,0.0,94,0.00,,,0.00,meteohub,2013-09-27 02:40:00,
2013-09-26 22:45:00,50.2,48.6,30.13,NW,320,0.0,0.0,94,0.00,,,0.00,meteohub,2013-09-27 02:45:00,
2013-09-26 22:51:00,50.0,48.4,30.13,NW,320,0.0,0.0,94,0.00,,,0.00,meteohub,2013-09-27 02:51:00,
2013-09-26 22:56:00,49.8,48.2,30.13,NW,320,0.0,0.0,94,0.00,,,0.00,meteohub,2013-09-27 02:56:00,
2013-09-26 23:01:00,49.8,48.2,30.13,NW,320,0.0,0.0,94,0.00,,,0.00,meteohub,2013-09-27 03:01:00,
2013-09-26 23:06:00,49.6,48.0,30.13,NW,320,0.0,0.0,94,0.00,,,0.00,meteohub,2013-09-27 03:06:00,
2013-09-26 23:11:00,49.6,48.2,30.13,NW,320,0.0,0.0,95,0.00,,,0.00,meteohub,2013-09-27 03:11:00,
2013-09-26 23:16:00,49.6,48.2,30.13,NW,320,0.0,0.0,95,0.00,,,0.00,meteohub,2013-09-27 03:16:00,
2013-09-26 23:21:00,49.6,48.2,30.13,NW,320,0.0,0.0,95,0.00,,,0.00,meteohub,2013-09-27 03:21:00,
2013-09-26 23:27:00,49.6,48.2,30.13,NW,320,0.0,0.0,95,0.00,,,0.00,meteohub,2013-09-27 03:27:00,
2013-09-26 23:32:00,49.6,48.2,30.13,NW,320,0.0,0.0,95,0.00,,,0.00,meteohub,2013-09-27 03:32:00,
2013-09-26 23:37:00,49.6,48.2,30.13,NW,320,0.0,0.0,95,0.00,,,0.00,meteohub,2013-09-27 03:37:00,
2013-09-26 23:42:00,49.6,48.2,30.13,NW,320,0.0,0.0,95,0.00,,,0.00,meteohub,2013-09-27 03:42:00,
2013-09-26 23:47:00,49.6,48.2,30.13,NW,320,0.0,0.0,95,0.00,,,0.00,meteohub,2013-09-27 03:47:00,
2013-09-26 23:52:00,49.6,48.6,30.13,NW,320,0.0,0.0,96,0.00,,,0.00,meteohub,2013-09-27 03:52:00,
2013-09-26 23:57:00,49.6,48.6,30.14,NW,320,0.0,0.0,96,0.00,,,0.00,meteohub,2013-09-27 03:57:00,